Time;durP1;ratioP1;P1;durP2;ratioP2;P2;SDS_P1;SDS_P2;PMS_P1;PMS_P2;Temp;Humidity;BMP_temperature;BMP_pressure;BME280_temperature;BME280_humidity;BME280_pressure;Samples;Min_cycle;Max_cycle;Signal;HPM_P1;HPM_P2
2022/02/15 00:01:28;;;;;;;2.17;1.70;;;8.10;79.80;;;;;;5055076;28;20021;-33
2022/02/15 00:03:54;;;;;;;3.78;1.77;;;8.00;79.80;;;;;;5054954;28;20036;-31
2022/02/15 00:06:19;;;;;;;4.07;2.15;;;8.00;79.80;;;;;;5054916;28;20411;-32
2022/02/15 00:08:45;;;;;;;3.03;1.80;;;8.00;80.00;;;;;;5054707;28;20029;-31
2022/02/15 00:11:10;;;;;;;2.17;1.70;;;8.00;80.10;;;;;;5054757;28;20549;-30
2022/02/15 00:13:36;;;;;;;1.98;1.65;;;8.00;80.10;;;;;;5054704;28;20018;-31
2022/02/15 00:16:02;;;;;;;2.38;1.90;;;8.00;80.10;;;;;;5053359;28;20029;-31
2022/02/15 00:18:27;;;;;;;3.47;2.13;;;8.00;80.10;;;;;;5054506;28;20388;-32
2022/02/15 00:20:53;;;;;;;5.93;2.30;;;8.10;80.30;;;;;;5054612;28;20389;-31
2022/02/15 00:23:19;;;;;;;3.30;2.20;;;8.00;80.20;;;;;;5054604;28;20385;-32
2022/02/15 00:25:44;;;;;;;5.47;2.28;;;8.10;80.30;;;;;;5054724;28;20025;-34
2022/02/15 00:28:10;;;;;;;4.38;2.70;;;8.10;80.30;;;;;;5054497;28;20025;-34
2022/02/15 00:30:35;;;;;;;3.22;2.35;;;8.10;80.30;;;;;;5054405;28;20028;-31
2022/02/15 00:33:01;;;;;;;3.10;2.30;;;8.20;80.40;;;;;;5054589;28;20059;-32
2022/02/15 00:35:26;;;;;;;4.03;2.42;;;8.20;81.00;;;;;;5054246;28;20017;-32
2022/02/15 00:37:52;;;;;;;3.45;2.42;;;8.20;80.40;;;;;;5054402;28;20036;-34
2022/02/15 00:40:17;;;;;;;4.30;2.50;;;8.20;80.30;;;;;;5053513;28;20032;-32
2022/02/15 00:42:44;;;;;;;3.80;3.00;;;8.30;80.40;;;;;;5054145;28;20052;-31
2022/02/15 00:45:10;;;;;;;4.32;2.28;;;8.20;80.50;;;;;;5053100;28;20079;-32
2022/02/15 00:47:36;;;;;;;6.38;2.80;;;8.20;80.40;;;;;;5054186;28;20082;-31
2022/02/15 00:50:03;;;;;;;5.85;2.67;;;8.20;80.40;;;;;;5054228;28;20017;-45
2022/02/15 00:52:29;;;;;;;3.90;2.45;;;8.20;80.50;;;;;;5054101;28;20029;-46
2022/02/15 00:54:55;;;;;;;2.55;2.35;;;8.20;81.10;;;;;;5052684;28;20028;-46
2022/02/15 00:57:24;;;;;;;3.95;2.58;;;8.30;80.50;;;;;;5053890;28;20071;-45
2022/02/15 00:59:51;;;;;;;2.95;2.17;;;8.30;80.40;;;;;;5053825;28;20074;-46
2022/02/15 01:02:17;;;;;;;3.33;2.20;;;8.30;80.30;;;;;;5054045;28;20476;-46
2022/02/15 01:04:43;;;;;;;2.75;2.30;;;8.30;80.20;;;;;;5053701;28;20025;-45
2022/02/15 01:07:09;;;;;;;4.50;2.65;;;8.40;80.20;;;;;;5053661;28;20066;-47
2022/02/15 01:09:34;;;;;;;3.83;2.58;;;8.40;80.20;;;;;;5053608;28;20096;-46
2022/02/15 01:12:00;;;;;;;4.25;2.22;;;8.40;80.10;;;;;;5053731;28;20029;-46
2022/02/15 01:14:26;;;;;;;4.25;2.50;;;8.40;80.20;;;;;;5053637;28;20060;-46
2022/02/15 01:16:52;;;;;;;4.10;2.67;;;8.40;80.20;;;;;;5053611;28;20469;-44
2022/02/15 01:19:17;;;;;;;5.85;3.33;;;8.40;80.20;;;;;;5053526;28;20025;-45
2022/02/15 01:21:43;;;;;;;5.50;3.20;;;8.30;80.30;;;;;;5053518;28;20033;-45
2022/02/15 01:24:09;;;;;;;7.15;4.28;;;8.30;80.40;;;;;;5053503;28;20029;-45
2022/02/15 01:26:34;;;;;;;5.15;3.65;;;8.30;80.50;;;;;;5053519;28;20487;-45
2022/02/15 01:29:00;;;;;;;6.15;4.28;;;8.20;80.60;;;;;;5053596;28;20024;-45
2022/02/15 01:31:26;;;;;;;7.88;3.97;;;8.20;80.80;;;;;;5053309;28;20462;-45
2022/02/15 01:33:51;;;;;;;6.72;4.00;;;8.20;80.90;;;;;;5053119;28;20028;-45
2022/02/15 01:36:17;;;;;;;9.50;4.15;;;8.10;81.10;;;;;;5053350;28;20060;-45
2022/02/15 01:38:43;;;;;;;5.55;3.65;;;8.10;81.10;;;;;;5053132;28;20057;-47
2022/02/15 01:41:09;;;;;;;7.10;4.03;;;8.10;81.20;;;;;;5053363;28;20021;-45
2022/02/15 01:43:38;;;;;;;6.22;3.95;;;8.10;81.20;;;;;;5052990;28;20037;-45
2022/02/15 01:46:04;;;;;;;6.40;3.83;;;8.10;81.30;;;;;;5053304;28;20029;-45
2022/02/15 01:48:30;;;;;;;6.15;3.78;;;8.10;81.40;;;;;;5053488;28;20354;-45
2022/02/15 01:50:58;;;;;;;7.57;3.95;;;8.10;81.40;;;;;;5052857;28;20017;-45
2022/02/15 01:53:24;;;;;;;9.23;5.30;;;8.10;81.50;;;;;;5053094;28;20110;-45
2022/02/15 01:55:50;;;;;;;10.13;4.80;;;8.00;81.50;;;;;;5052804;28;20109;-46
2022/02/15 01:58:17;;;;;;;7.78;4.28;;;8.00;81.50;;;;;;5052772;28;20470;-45
2022/02/15 02:00:42;;;;;;;4.63;3.53;;;8.00;81.60;;;;;;5052747;28;20473;-45
2022/02/15 02:03:08;;;;;;;5.95;3.88;;;8.10;81.70;;;;;;5051656;28;20028;-45
2022/02/15 02:05:49;;;;;;;6.03;3.80;;;8.00;81.70;;;;;;5052733;28;20024;-46
2022/02/15 02:08:21;;;;;;;6.28;3.95;;;8.10;81.70;;;;;;5052678;28;20036;-45
2022/02/15 02:10:49;;;;;;;4.93;3.33;;;8.10;81.60;;;;;;5052750;28;20021;-46
2022/02/15 02:13:15;;;;;;;8.00;4.22;;;8.10;81.50;;;;;;5052695;28;20076;-46
2022/02/15 02:15:43;;;;;;;6.53;4.10;;;8.20;81.50;;;;;;5052487;28;20485;-45
2022/02/15 02:18:09;;;;;;;7.30;4.15;;;8.10;81.50;;;;;;5052807;28;20124;-47
2022/02/15 02:20:34;;;;;;;8.73;4.35;;;8.20;81.60;;;;;;5052396;28;20068;-45
2022/02/15 02:23:00;;;;;;;7.57;4.05;;;8.20;81.50;;;;;;5052551;28;20500;-44
2022/02/15 02:25:26;;;;;;;7.70;4.40;;;8.20;81.50;;;;;;5052274;28;20108;-45
2022/02/15 02:27:51;;;;;;;7.80;4.20;;;8.20;81.50;;;;;;5052303;28;20090;-44
2022/02/15 02:30:18;;;;;;;7.35;4.28;;;8.20;81.50;;;;;;5052700;28;20021;-44
2022/02/15 02:32:44;;;;;;;6.55;3.90;;;8.20;81.60;;;;;;5052565;28;20024;-45
2022/02/15 02:35:11;;;;;;;6.95;4.18;;;8.10;81.60;;;;;;5052375;28;20029;-45
2022/02/15 02:37:38;;;;;;;8.90;4.55;;;8.10;81.70;;;;;;5052438;28;20032;-44
2022/02/15 02:40:07;;;;;;;7.38;4.00;;;8.10;81.80;;;;;;5052448;28;20059;-45
2022/02/15 02:42:34;;;;;;;8.07;3.63;;;8.00;82.20;;;;;;5052344;28;20561;-45
2022/02/15 02:45:04;;;;;;;6.30;4.00;;;8.00;82.10;;;;;;5052277;28;20031;-45
2022/02/15 02:47:30;;;;;;;7.70;3.88;;;7.90;82.10;;;;;;5052400;28;20413;-46
2022/02/15 02:49:56;;;;;;;6.65;3.40;;;7.90;82.30;;;;;;5052337;28;20021;-45
2022/02/15 02:52:22;;;;;;;7.25;3.58;;;7.90;82.40;;;;;;5052256;28;20040;-45
2022/02/15 02:54:49;;;;;;;7.40;3.67;;;7.90;82.50;;;;;;5052535;28;20017;-47
2022/02/15 02:57:15;;;;;;;4.25;3.25;;;7.90;82.50;;;;;;5052494;28;20024;-45
2022/02/15 02:59:41;;;;;;;5.78;3.08;;;7.90;82.60;;;;;;5052097;28;20029;-46
2022/02/15 03:02:08;;;;;;;5.32;3.05;;;7.90;82.60;;;;;;5052609;28;20362;-46
2022/02/15 03:04:35;;;;;;;6.05;3.83;;;7.80;82.60;;;;;;5055759;28;20082;-45
2022/02/15 03:07:00;;;;;;;8.18;2.95;;;7.80;82.60;;;;;;5056231;28;20414;-46
2022/02/15 03:09:26;;;;;;;6.38;3.10;;;7.80;82.60;;;;;;5054893;28;20070;-44
2022/02/15 03:11:52;;;;;;;5.55;2.85;;;7.80;82.70;;;;;;5056460;28;20031;-45
2022/02/15 03:14:18;;;;;;;5.82;3.00;;;7.80;82.80;;;;;;5055985;28;20099;-45
2022/02/15 03:16:44;;;;;;;6.88;2.58;;;7.80;82.80;;;;;;5055977;28;20385;-45
2022/02/15 03:19:10;;;;;;;5.88;2.72;;;7.80;82.80;;;;;;5056047;28;20029;-46
2022/02/15 03:21:35;;;;;;;4.05;2.53;;;7.80;82.80;;;;;;5055892;28;20036;-45
2022/02/15 03:24:01;;;;;;;3.05;2.28;;;7.80;82.70;;;;;;5054416;28;20023;-45
2022/02/15 03:26:27;;;;;;;4.45;2.50;;;7.90;82.80;;;;;;5055581;28;20025;-45
2022/02/15 03:28:53;;;;;;;6.07;2.40;;;7.90;82.80;;;;;;5055672;28;20025;-44
2022/02/15 03:31:19;;;;;;;3.72;2.35;;;7.90;82.70;;;;;;5055694;28;20021;-44
2022/02/15 03:33:45;;;;;;;6.00;2.20;;;7.90;82.60;;;;;;5054555;28;20381;-45
2022/02/15 03:36:11;;;;;;;5.88;2.20;;;7.90;82.70;;;;;;5055852;28;20024;-45
2022/02/15 03:38:36;;;;;;;4.80;2.03;;;7.90;82.70;;;;;;5055806;28;20465;-46
2022/02/15 03:43:46;;;;;;;4.95;2.20;;;7.90;82.70;;;;;;5055395;28;20052;-46
2022/02/15 03:46:12;;;;;;;3.85;2.00;;;7.90;82.60;;;;;;5055308;28;20462;-45
2022/02/15 03:48:38;;;;;;;2.97;1.90;;;7.90;82.60;;;;;;5054013;28;20154;-45
2022/02/15 03:51:03;;;;;;;4.18;2.08;;;8.00;82.70;;;;;;5055188;28;20025;-47
2022/02/15 03:53:29;;;;;;;4.63;2.22;;;8.00;82.60;;;;;;5055148;28;20044;-47
2022/02/15 03:55:55;;;;;;;4.35;2.22;;;8.00;82.60;;;;;;5055051;28;20469;-45
2022/02/15 03:58:20;;;;;;;4.32;2.42;;;8.00;82.60;;;;;;5053715;28;20116;-44
2022/02/15 04:00:46;;;;;;;4.78;2.60;;;8.00;82.60;;;;;;5055015;28;20025;-45
2022/02/15 04:03:12;;;;;;;4.47;2.58;;;8.00;82.60;;;;;;5055554;28;20499;-45
2022/02/15 04:05:37;;;;;;;4.53;2.80;;;8.00;82.60;;;;;;5054982;28;20025;-45
2022/02/15 04:08:03;;;;;;;5.30;2.40;;;8.00;82.60;;;;;;5054774;28;20029;-45
2022/02/15 04:10:29;;;;;;;6.35;2.55;;;7.90;82.60;;;;;;5054773;28;20063;-45
2022/02/15 04:12:54;;;;;;;5.35;2.95;;;8.00;82.70;;;;;;5054786;28;20052;-45
2022/02/15 04:15:20;;;;;;;6.97;2.40;;;7.90;83.20;;;;;;5054719;28;20033;-45
2022/02/15 04:17:46;;;;;;;3.88;2.38;;;7.90;82.60;;;;;;5054947;28;20063;-45
2022/02/15 04:20:13;;;;;;;4.45;2.33;;;8.00;82.60;;;;;;5054689;28;20100;-46
2022/02/15 04:22:39;;;;;;;6.75;2.70;;;8.00;82.70;;;;;;5054483;28;20104;-45
2022/02/15 04:25:05;;;;;;;5.65;2.75;;;8.00;82.60;;;;;;5054600;28;20051;-45
2022/02/15 04:27:31;;;;;;;3.92;2.70;;;8.00;82.60;;;;;;5053124;28;20492;-45
2022/02/15 04:29:57;;;;;;;4.53;2.72;;;8.00;82.50;;;;;;5054515;28;20017;-46
2022/02/15 04:32:23;;;;;;;4.75;2.53;;;8.00;82.50;;;;;;5054376;28;20021;-45
2022/02/15 04:34:49;;;;;;;4.50;2.85;;;8.00;82.60;;;;;;5054356;28;20039;-45
2022/02/15 04:37:15;;;;;;;5.60;3.10;;;8.00;82.60;;;;;;5054351;28;20017;-45
2022/02/15 04:39:41;;;;;;;6.30;3.17;;;8.00;82.60;;;;;;5054361;28;20072;-45
2022/02/15 04:42:07;;;;;;;7.05;3.55;;;8.00;82.50;;;;;;5054561;28;20391;-45
2022/02/15 04:44:33;;;;;;;7.57;3.05;;;8.10;82.60;;;;;;5054280;28;20107;-46
2022/02/15 04:46:59;;;;;;;7.72;3.28;;;8.00;82.50;;;;;;5054436;28;20025;-46
2022/02/15 04:49:25;;;;;;;4.90;3.05;;;8.10;82.60;;;;;;5054261;28;20021;-45
2022/02/15 04:51:51;;;;;;;5.95;2.88;;;8.10;82.50;;;;;;5054134;28;20017;-46
2022/02/15 04:54:19;;;;;;;5.93;3.38;;;8.10;83.10;;;;;;5052718;28;20107;-45
2022/02/15 04:56:45;;;;;;;5.07;3.38;;;8.10;82.50;;;;;;5053785;28;20025;-47
2022/02/15 04:59:11;;;;;;;5.95;3.97;;;8.10;82.50;;;;;;5053849;28;20032;-45
2022/02/15 05:01:37;;;;;;;8.18;4.25;;;8.10;82.50;;;;;;5053844;28;20021;-46
2022/02/15 05:04:02;;;;;;;5.88;3.80;;;8.10;82.50;;;;;;5054018;28;20374;-45
2022/02/15 05:06:28;;;;;;;6.82;3.90;;;8.10;82.50;;;;;;5053631;28;20033;-45
2022/02/15 05:08:53;;;;;;;7.28;4.20;;;8.00;82.40;;;;;;5052570;28;20021;-45
2022/02/15 05:11:19;;;;;;;6.90;3.90;;;8.00;83.10;;;;;;5053880;28;20037;-44
2022/02/15 05:13:44;;;;;;;6.22;3.90;;;8.10;82.60;;;;;;5053792;28;20017;-46
2022/02/15 05:16:10;;;;;;;5.80;4.40;;;8.10;82.60;;;;;;5052378;28;20104;-45
2022/02/15 05:18:36;;;;;;;8.45;4.40;;;8.10;82.60;;;;;;5053602;28;20415;-44
2022/02/15 05:21:02;;;;;;;6.90;4.60;;;8.00;82.60;;;;;;5053789;28;20539;-45
2022/02/15 05:23:29;;;;;;;7.90;4.88;;;8.10;82.60;;;;;;5053551;28;20024;-45
2022/02/15 05:25:55;;;;;;;7.57;4.60;;;8.10;82.60;;;;;;5053219;28;20043;-45
2022/02/15 05:28:21;;;;;;;9.75;5.18;;;8.10;82.60;;;;;;5051865;28;20021;-45
2022/02/15 05:30:46;;;;;;;11.82;5.60;;;8.10;82.50;;;;;;5035538;28;20029;-45
2022/02/15 05:33:13;;;;;;;9.05;4.88;;;8.10;82.50;;;;;;5053299;28;20055;-46
2022/02/15 05:35:38;;;;;;;8.38;5.88;;;8.20;82.50;;;;;;5053438;28;20597;-44
2022/02/15 05:38:04;;;;;;;9.25;5.68;;;8.10;82.50;;;;;;5053241;28;20021;-44
2022/02/15 05:40:30;;;;;;;11.15;6.60;;;8.10;82.40;;;;;;5053470;28;20051;-45
2022/02/15 05:42:55;;;;;;;9.73;6.20;;;8.10;82.50;;;;;;5052915;28;20045;-47
2022/02/15 05:45:21;;;;;;;11.75;6.70;;;8.10;82.60;;;;;;5052875;28;20128;-47
2022/02/15 05:47:47;;;;;;;11.38;7.03;;;8.10;82.70;;;;;;5053133;28;20021;-45
2022/02/15 05:52:57;;;;;;;14.65;7.78;;;8.10;82.70;;;;;;5053198;28;20115;-46
2022/02/15 05:55:22;;;;;;;10.70;7.68;;;8.10;82.80;;;;;;5052871;28;20056;-45
2022/02/15 05:57:48;;;;;;;9.13;6.45;;;8.10;82.80;;;;;;5052951;28;20052;-45
2022/02/15 06:00:15;;;;;;;10.27;6.80;;;8.10;82.90;;;;;;5053078;28;20029;-46
2022/02/15 06:02:42;;;;;;;10.60;6.68;;;8.10;82.90;;;;;;5052917;28;20078;-46
2022/02/15 06:05:08;;;;;;;10.80;6.97;;;8.20;82.90;;;;;;5052970;28;20021;-45
2022/02/15 06:07:34;;;;;;;11.13;6.97;;;8.20;82.90;;;;;;5052677;28;20051;-46
2022/02/15 06:09:59;;;;;;;10.10;6.78;;;8.20;82.90;;;;;;5052520;28;20013;-45
2022/02/15 06:12:25;;;;;;;11.13;7.50;;;8.20;82.90;;;;;;5052700;28;20091;-46
2022/02/15 06:14:51;;;;;;;14.05;8.27;;;8.20;82.90;;;;;;5052721;28;20048;-47
2022/02/15 06:17:17;;;;;;;10.38;7.78;;;8.20;83.00;;;;;;5052885;28;20093;-44
2022/02/15 06:19:42;;;;;;;10.60;7.22;;;8.20;83.10;;;;;;5052506;28;20052;-45
2022/02/15 06:22:08;;;;;;;13.77;7.90;;;8.20;83.20;;;;;;5052465;28;20029;-45
2022/02/15 06:24:34;;;;;;;13.80;8.23;;;8.20;83.20;;;;;;5052478;28;20087;-47
2022/02/15 06:27:02;;;;;;;13.15;8.40;;;8.20;83.20;;;;;;5052584;28;20100;-47
2022/02/15 06:29:32;;;;;;;13.52;7.80;;;8.20;83.30;;;;;;5051263;28;20017;-45
2022/02/15 06:31:58;;;;;;;13.90;8.40;;;8.10;83.40;;;;;;5052367;28;20102;-47
2022/02/15 06:34:25;;;;;;;11.70;8.13;;;8.20;83.50;;;;;;5052195;28;20457;-45
2022/02/15 06:36:54;;;;;;;13.13;7.85;;;8.20;83.60;;;;;;5052564;28;20100;-45
2022/02/15 06:39:20;;;;;;;14.65;8.63;;;8.10;83.50;;;;;;5055625;28;20049;-45
2022/02/15 06:41:46;;;;;;;13.35;8.20;;;8.20;83.60;;;;;;5056417;28;20025;-47
2022/02/15 06:44:11;;;;;;;15.05;8.10;;;8.20;83.60;;;;;;5056234;28;20516;-45
2022/02/15 06:46:37;;;;;;;12.35;7.68;;;8.20;83.60;;;;;;5056608;28;20025;-46
2022/02/15 06:49:04;;;;;;;15.25;8.52;;;8.20;83.60;;;;;;5056645;28;20024;-45
2022/02/15 06:51:29;;;;;;;12.98;8.30;;;8.20;83.60;;;;;;5056535;28;20020;-45
2022/02/15 06:53:55;;;;;;;15.23;8.77;;;8.20;83.60;;;;;;5056257;28;20032;-45
2022/02/15 06:56:21;;;;;;;16.42;9.10;;;8.20;83.60;;;;;;5056374;28;20090;-45
2022/02/15 06:58:47;;;;;;;15.43;8.50;;;8.20;83.70;;;;;;5056326;28;20021;-46
2022/02/15 07:01:12;;;;;;;13.10;8.88;;;8.20;83.70;;;;;;5056155;28;20029;-46
2022/02/15 07:03:38;;;;;;;13.48;8.65;;;8.20;83.80;;;;;;5055939;28;20028;-46
2022/02/15 07:06:04;;;;;;;14.32;8.23;;;8.20;84.50;;;;;;5056129;28;20071;-46
2022/02/15 07:08:30;;;;;;;16.83;8.77;;;8.20;83.80;;;;;;5054519;28;20023;-46
2022/02/15 07:10:56;;;;;;;12.82;8.07;;;8.20;83.80;;;;;;5055731;28;20506;-46
2022/02/15 07:13:25;;;;;;;10.93;7.75;;;8.20;83.80;;;;;;5056172;28;20036;-46
2022/02/15 07:15:51;;;;;;;12.82;7.90;;;8.30;83.80;;;;;;5056428;28;20021;-46
2022/02/15 07:18:17;;;;;;;17.95;8.98;;;8.30;83.80;;;;;;5056072;28;20334;-46
2022/02/15 07:20:43;;;;;;;15.90;9.35;;;8.30;83.80;;;;;;5055993;28;20021;-46
2022/02/15 07:23:10;;;;;;;14.73;8.63;;;8.30;83.90;;;;;;5055895;28;20040;-46
2022/02/15 07:25:40;;;;;;;15.80;8.85;;;8.20;83.80;;;;;;5055785;28;20021;-46
2022/02/15 07:28:06;;;;;;;18.55;9.32;;;8.30;83.90;;;;;;5055892;28;20036;-46
2022/02/15 07:30:32;;;;;;;18.77;9.48;;;8.30;84.00;;;;;;5055437;28;20392;-46
2022/02/15 07:32:57;;;;;;;16.55;8.55;;;8.20;84.00;;;;;;5055565;28;20021;-44
2022/02/15 07:35:23;;;;;;;15.40;8.90;;;8.20;84.10;;;;;;5055453;28;20021;-45
2022/02/15 07:37:50;;;;;;;15.90;8.00;;;8.20;84.10;;;;;;5055422;28;20021;-46
2022/02/15 07:40:19;;;;;;;15.65;8.65;;;8.20;84.20;;;;;;5055487;28;20029;-46
2022/02/15 07:42:45;;;;;;;19.80;9.45;;;8.20;84.30;;;;;;5055480;28;20504;-46
2022/02/15 07:45:17;;;;;;;16.35;8.77;;;8.10;84.30;;;;;;5055400;28;20033;-46
2022/02/15 07:47:52;;;;;;;18.08;9.68;;;8.10;84.40;;;;;;5055499;28;20507;-46
2022/02/15 07:50:20;;;;;;;15.63;8.20;;;8.20;84.60;;;;;;5054964;28;20037;-45
2022/02/15 07:52:50;;;;;;;16.17;8.60;;;8.20;84.60;;;;;;5055197;28;20488;-46
2022/02/15 07:55:16;;;;;;;17.33;8.20;;;8.20;84.50;;;;;;5055649;28;20024;-46
2022/02/15 07:57:42;;;;;;;13.43;7.78;;;8.30;84.60;;;;;;5055524;28;20504;-47
2022/02/15 08:00:08;;;;;;;14.90;8.95;;;8.20;84.40;;;;;;5055329;28;20025;-47
2022/02/15 08:02:34;;;;;;;15.23;8.45;;;8.20;84.40;;;;;;5055499;28;20465;-46
2022/02/15 08:05:00;;;;;;;14.30;7.28;;;8.20;84.60;;;;;;5055033;28;20155;-47
2022/02/15 08:07:30;;;;;;;19.20;8.00;;;8.20;84.70;;;;;;5054923;28;20038;-46
2022/02/15 08:09:56;;;;;;;12.60;7.85;;;8.10;84.70;;;;;;5055291;28;20484;-46
2022/02/15 08:12:21;;;;;;;17.45;7.75;;;8.10;84.80;;;;;;5055068;28;20120;-46
2022/02/15 08:14:48;;;;;;;17.23;8.70;;;8.10;84.80;;;;;;5055209;28;20025;-45
2022/02/15 08:17:14;;;;;;;15.73;8.05;;;8.20;84.90;;;;;;5055221;28;20495;-46
2022/02/15 08:19:39;;;;;;;19.73;7.85;;;8.20;84.90;;;;;;5054839;28;20112;-47
2022/02/15 08:22:05;;;;;;;13.68;6.90;;;8.20;84.80;;;;;;5055066;28;20415;-47
2022/02/15 08:24:31;;;;;;;10.23;6.45;;;8.20;84.70;;;;;;5053572;28;20162;-47
2022/02/15 08:26:57;;;;;;;13.48;6.78;;;8.30;84.70;;;;;;5054650;28;20029;-46
2022/02/15 08:29:23;;;;;;;17.23;6.95;;;8.30;84.60;;;;;;5054924;28;20025;-46
2022/02/15 08:31:49;;;;;;;14.23;6.60;;;8.40;84.70;;;;;;5054943;28;20021;-47
2022/02/15 08:34:15;;;;;;;10.70;6.30;;;8.30;84.40;;;;;;5055103;28;20365;-46
2022/02/15 08:36:40;;;;;;;12.27;6.13;;;8.40;84.40;;;;;;5054743;28;20029;-46
2022/02/15 08:39:06;;;;;;;13.35;6.15;;;8.50;84.30;;;;;;5054680;28;20032;-46
2022/02/15 08:41:32;;;;;;;13.15;6.20;;;8.50;84.20;;;;;;5054541;28;20040;-48
2022/02/15 08:43:58;;;;;;;12.88;6.13;;;8.50;84.10;;;;;;5054459;28;20413;-47
2022/02/15 08:46:25;;;;;;;16.55;6.43;;;8.50;83.80;;;;;;5054757;28;20024;-45
2022/02/15 08:48:51;;;;;;;12.80;5.45;;;8.50;83.80;;;;;;5054584;28;20041;-46
2022/02/15 08:51:19;;;;;;;13.88;5.38;;;8.60;83.80;;;;;;5054511;28;20025;-47
2022/02/15 08:53:45;;;;;;;11.15;4.85;;;8.60;83.70;;;;;;5054710;28;20029;-47
2022/02/15 08:56:11;;;;;;;11.32;4.88;;;8.60;83.60;;;;;;5054394;28;20503;-46
2022/02/15 08:58:37;;;;;;;15.07;4.78;;;8.60;83.40;;;;;;5054531;28;20119;-47
2022/02/15 09:01:03;;;;;;;11.40;4.18;;;8.60;83.30;;;;;;5053439;28;20029;-47
2022/02/15 09:03:28;;;;;;;11.75;4.32;;;8.60;83.30;;;;;;5054182;28;20020;-45
2022/02/15 09:05:55;;;;;;;8.65;3.60;;;8.70;83.30;;;;;;5054283;28;20032;-47
2022/02/15 09:08:21;;;;;;;9.93;3.50;;;8.70;83.20;;;;;;5054110;28;20428;-45
2022/02/15 09:10:46;;;;;;;12.60;3.65;;;8.70;82.80;;;;;;5054186;28;20024;-48
2022/02/15 09:13:12;;;;;;;11.95;4.03;;;8.70;81.90;;;;;;5054192;28;20477;-47
2022/02/15 09:15:38;;;;;;;13.25;3.50;;;8.60;81.80;;;;;;5054065;28;20432;-48
2022/02/15 09:18:04;;;;;;;9.73;4.07;;;8.50;81.80;;;;;;5054017;28;20093;-46
2022/02/15 09:20:29;;;;;;;8.52;3.20;;;8.40;81.90;;;;;;5054072;28;20108;-46
2022/02/15 09:22:55;;;;;;;6.75;3.05;;;8.40;82.10;;;;;;5053978;28;20028;-46
2022/02/15 09:25:20;;;;;;;7.05;3.00;;;8.50;82.00;;;;;;5053906;28;20436;-45
2022/02/15 09:27:46;;;;;;;7.32;2.70;;;8.50;81.90;;;;;;5053844;28;20021;-47
2022/02/15 09:30:12;;;;;;;7.13;2.90;;;8.60;81.90;;;;;;5053850;28;20104;-47
2022/02/15 09:32:37;;;;;;;8.40;3.40;;;8.70;81.50;;;;;;5053671;28;20025;-46
2022/02/15 09:35:03;;;;;;;9.30;3.22;;;8.90;80.80;;;;;;5054051;28;20052;-46
2022/02/15 09:37:29;;;;;;;5.43;2.90;;;9.00;80.70;;;;;;5052454;28;20550;-47
2022/02/15 09:39:56;;;;;;;8.68;3.00;;;9.20;80.50;;;;;;5053580;28;20025;-48
2022/02/15 09:42:22;;;;;;;7.47;2.97;;;9.30;80.10;;;;;;5053669;28;20031;-46
2022/02/15 09:44:48;;;;;;;9.32;3.42;;;9.40;79.50;;;;;;5052213;28;20139;-47
2022/02/15 09:47:27;;;;;;;11.27;3.80;;;9.40;78.90;;;;;;5053419;28;20155;-47
2022/02/15 09:49:53;;;;;;;8.80;3.25;;;9.30;78.50;;;;;;5053556;28;20025;-45
2022/02/15 09:52:23;;;;;;;9.57;3.03;;;9.30;78.70;;;;;;5053676;28;20573;-45
2022/02/15 09:54:55;;;;;;;16.80;3.50;;;9.30;78.60;;;;;;5053588;28;20418;-45
2022/02/15 09:57:22;;;;;;;8.95;2.88;;;9.30;78.10;;;;;;5053445;28;20047;-45
2022/02/15 09:59:47;;;;;;;5.88;2.25;;;9.30;77.70;;;;;;5053273;28;20366;-46
2022/02/15 10:02:25;;;;;;;5.90;2.60;;;9.30;78.00;;;;;;5053102;28;20025;-46
2022/02/15 10:04:55;;;;;;;6.53;2.75;;;9.30;77.90;;;;;;5053274;28;20029;-45
2022/02/15 10:07:22;;;;;;;5.72;2.30;;;9.30;77.90;;;;;;5053251;28;20447;-45
2022/02/15 10:09:49;;;;;;;5.68;2.20;;;9.30;78.10;;;;;;5053127;28;20469;-45
2022/02/15 10:12:15;;;;;;;8.00;2.53;;;9.30;78.20;;;;;;5052854;28;20014;-46
2022/02/15 10:14:43;;;;;;;6.25;2.70;;;9.40;77.60;;;;;;5052954;28;20025;-45
2022/02/15 10:17:12;;;;;;;6.88;2.35;;;9.50;77.50;;;;;;5053143;28;20036;-45
2022/02/15 10:19:38;;;;;;;8.80;2.65;;;9.50;77.20;;;;;;5053231;28;20499;-45
2022/02/15 10:22:05;;;;;;;6.80;2.22;;;9.50;77.00;;;;;;5053244;28;20025;-45
2022/02/15 10:24:34;;;;;;;5.13;2.15;;;9.50;76.70;;;;;;5051753;28;20028;-45
2022/02/15 10:27:14;;;;;;;8.93;2.50;;;9.40;76.70;;;;;;5052815;28;20419;-45
2022/02/15 10:29:42;;;;;;;5.25;2.10;;;9.30;75.60;;;;;;5052845;28;20025;-45
2022/02/15 10:32:10;;;;;;;6.03;1.67;;;9.20;76.10;;;;;;5053028;28;20096;-46
2022/02/15 10:35:05;;;;;;;4.53;1.63;;;9.20;75.90;;;;;;5053079;28;20104;-46
2022/02/15 10:37:32;;;;;;;6.90;1.80;;;9.30;75.30;;;;;;5047005;28;20033;-47
2022/02/15 10:40:04;;;;;;;7.10;1.50;;;9.40;74.40;;;;;;5053036;28;20036;-45
2022/02/15 10:42:31;;;;;;;5.30;1.63;;;9.50;73.90;;;;;;5052471;28;20119;-46
2022/02/15 10:45:08;;;;;;;5.15;1.92;;;9.60;73.40;;;;;;5052670;28;20159;-46
2022/02/15 10:47:40;;;;;;;5.25;1.73;;;9.70;73.60;;;;;;5052499;28;20040;-46
2022/02/15 10:50:16;;;;;;;10.45;2.65;;;9.80;73.50;;;;;;5052878;28;20370;-45
2022/02/15 10:52:42;;;;;;;5.53;1.85;;;9.90;72.50;;;;;;5052484;28;20029;-46
2022/02/15 10:55:09;;;;;;;6.75;1.67;;;9.90;73.10;;;;;;5052704;28;20032;-46
2022/02/15 10:57:38;;;;;;;5.57;2.00;;;10.00;73.30;;;;;;5052744;28;20025;-46
2022/02/15 11:00:09;;;;;;;7.70;2.00;;;10.00;72.50;;;;;;5052521;28;20033;-46
2022/02/15 11:02:38;;;;;;;6.38;1.90;;;9.90;72.00;;;;;;5052734;28;20037;-46
2022/02/15 11:05:06;;;;;;;4.72;1.58;;;9.90;72.70;;;;;;5052525;28;20083;-47
2022/02/15 11:07:34;;;;;;;5.22;1.70;;;10.00;72.60;;;;;;5052698;28;20108;-46
2022/02/15 11:10:18;;;;;;;6.95;1.70;;;10.00;72.10;;;;;;5052666;28;20477;-46
2022/02/15 11:13:00;;;;;;;7.38;1.73;;;10.00;71.70;;;;;;5052543;28;20112;-46
2022/02/15 11:15:32;;;;;;;6.00;1.53;;;9.90;71.80;;;;;;5051025;28;20108;-45
2022/02/15 11:18:04;;;;;;;3.95;1.50;;;9.80;71.80;;;;;;5052307;28;20025;-46
2022/02/15 11:20:50;;;;;;;7.03;1.80;;;9.70;71.70;;;;;;5052318;28;20025;-46
2022/02/15 11:23:17;;;;;;;5.63;1.42;;;9.70;71.70;;;;;;5052410;28;20068;-45
2022/02/15 11:25:44;;;;;;;6.93;1.63;;;9.80;71.90;;;;;;5055851;28;20029;-45
2022/02/15 11:28:15;;;;;;;5.15;1.75;;;9.90;71.10;;;;;;5055931;28;20020;-44
2022/02/15 11:31:02;;;;;;;3.72;1.50;;;9.90;70.50;;;;;;5055962;28;20056;-46
2022/02/15 11:33:30;;;;;;;5.22;1.80;;;9.80;69.80;;;;;;5055862;28;20036;-46
2022/02/15 11:36:03;;;;;;;4.90;1.67;;;9.90;70.00;;;;;;5056125;28;20021;-44
2022/02/15 11:38:28;;;;;;;5.15;1.50;;;9.80;70.10;;;;;;5055908;28;20039;-45
2022/02/15 11:41:00;;;;;;;5.72;1.92;;;9.80;69.50;;;;;;5055703;28;20115;-46
2022/02/15 11:43:26;;;;;;;3.53;1.38;;;9.80;70.00;;;;;;5055485;28;20057;-46
2022/02/15 11:45:51;;;;;;;11.45;2.25;;;9.80;69.50;;;;;;5055784;28;20107;-45
2022/02/15 11:48:17;;;;;;;4.70;1.40;;;9.80;68.70;;;;;;5055611;28;20116;-47
2022/02/15 11:50:49;;;;;;;2.55;1.20;;;9.80;68.70;;;;;;5055839;28;20020;-45
2022/02/15 11:53:19;;;;;;;4.93;1.60;;;9.90;68.80;;;;;;5055738;28;20127;-45
2022/02/15 11:55:46;;;;;;;6.15;1.50;;;9.90;68.20;;;;;;5055714;28;20033;-45
2022/02/15 11:58:13;;;;;;;5.05;1.40;;;9.90;68.10;;;;;;5055472;28;20067;-45
2022/02/15 12:00:40;;;;;;;6.40;1.25;;;10.00;67.40;;;;;;5055355;28;20021;-45
2022/02/15 12:03:06;;;;;;;4.00;1.30;;;10.00;67.20;;;;;;5055356;28;20029;-45
2022/02/15 12:05:36;;;;;;;5.10;1.35;;;10.10;67.10;;;;;;5055351;28;20017;-45
2022/02/15 12:08:02;;;;;;;3.92;1.60;;;10.20;66.50;;;;;;5055473;28;20570;-45
2022/02/15 12:10:39;;;;;;;3.70;1.50;;;10.20;66.30;;;;;;5055192;28;20056;-45
2022/02/15 12:13:14;;;;;;;4.95;1.73;;;10.20;65.00;;;;;;5055157;28;20025;-45
2022/02/15 12:15:39;;;;;;;3.63;1.33;;;10.20;64.90;;;;;;5053889;28;20028;-46
2022/02/15 12:18:05;;;;;;;4.93;2.00;;;10.20;65.60;;;;;;5055104;28;20393;-46
2022/02/15 12:20:31;;;;;;;4.95;1.70;;;10.20;65.80;;;;;;5055418;28;20035;-47
2022/02/15 12:22:56;;;;;;;4.68;1.67;;;10.20;65.90;;;;;;5055072;28;20147;-46
2022/02/15 12:25:23;;;;;;;6.97;1.63;;;10.30;65.30;;;;;;5055235;28;20398;-46
2022/02/15 12:27:49;;;;;;;5.05;1.48;;;10.30;65.00;;;;;;5054951;28;20060;-47
2022/02/15 12:30:17;;;;;;;4.97;1.80;;;10.30;65.40;;;;;;5053700;28;20020;-47
2022/02/15 12:32:46;;;;;;;4.07;1.77;;;10.40;64.80;;;;;;5054737;28;20036;-44
2022/02/15 12:35:13;;;;;;;8.75;2.38;;;10.40;64.80;;;;;;5054161;28;20206;-47
2022/02/15 12:37:38;;;;;;;4.10;1.95;;;10.40;65.00;;;;;;5054600;28;20076;-46
2022/02/15 12:40:06;;;;;;;6.43;2.10;;;10.50;64.90;;;;;;5054744;28;20029;-47
2022/02/15 12:42:34;;;;;;;3.10;1.75;;;10.50;64.70;;;;;;5054624;28;20045;-47
2022/02/15 12:45:08;;;;;;;7.63;2.00;;;10.50;64.80;;;;;;5054752;28;20032;-46
2022/02/15 12:47:37;;;;;;;5.53;1.60;;;10.70;64.50;;;;;;5054464;28;20036;-47
2022/02/15 12:50:03;;;;;;;3.55;1.75;;;10.70;63.10;;;;;;5054472;28;20037;-47
2022/02/15 12:52:30;;;;;;;3.15;1.52;;;10.80;62.90;;;;;;5054511;28;20021;-46
2022/02/15 12:55:08;;;;;;;3.35;1.50;;;10.80;62.20;;;;;;5054696;28;20043;-47
2022/02/15 12:57:37;;;;;;;6.68;1.88;;;10.80;62.00;;;;;;5054433;28;20029;-46